createdAt,value
2017-09-09T00:06:42.402Z,6.00
2017-09-09T00:26:50.865Z,8.18
2017-09-09T00:29:19.953Z,8.15
2017-09-09T00:31:57.259Z,8.05
2017-09-09T00:41:43.299Z,8.20
2017-09-09T00:44:12.799Z,6.97
2017-09-09T00:46:43.272Z,6.82
2017-09-09T00:49:12.782Z,9.07
2017-09-09T00:54:20.207Z,7.70
2017-09-09T00:57:06.538Z,8.05
2017-09-09T00:59:35.477Z,8.82
2017-09-09T01:02:04.618Z,8.20
2017-09-09T01:12:57.341Z,8.80
2017-09-09T01:15:26.229Z,7.95
2017-09-09T01:17:55.110Z,9.07
2017-09-09T01:20:23.771Z,8.80
2017-09-09T01:22:56.093Z,8.25
2017-09-09T01:25:24.290Z,8.30
2017-09-09T01:34:38.861Z,8.57
2017-09-09T01:50:46.463Z,8.95
2017-09-09T01:53:15.593Z,8.35
2017-09-09T02:01:24.213Z,8.88
2017-09-09T02:03:52.886Z,6.82
2017-09-09T02:09:01.911Z,7.00
2017-09-09T02:11:48.871Z,9.20
2017-09-09T02:18:57.144Z,8.10
2017-09-09T02:48:07.603Z,9.20
2017-09-09T02:50:36.249Z,8.75
2017-09-09T02:53:07.064Z,8.40
2017-09-09T02:55:36.376Z,7.85
2017-09-09T02:58:06.644Z,7.15
2017-09-09T03:00:36.506Z,7.97
2017-09-09T03:03:06.645Z,8.02
2017-09-09T03:05:44.702Z,6.70
2017-09-09T03:14:31.729Z,6.95
2017-09-09T03:17:02.074Z,6.82
2017-09-09T03:22:24.838Z,7.22
2017-09-09T03:25:00.428Z,7.20
2017-09-09T03:27:33.518Z,6.87
2017-09-09T03:30:08.785Z,8.45
2017-09-09T03:32:39.163Z,7.05
2017-09-09T03:35:11.332Z,7.80
2017-09-09T03:37:40.183Z,6.82
2017-09-09T03:40:11.881Z,7.93
2017-09-09T03:42:40.810Z,7.47
2017-09-09T03:45:09.728Z,8.13
2017-09-09T03:47:38.297Z,6.95
2017-09-09T03:50:07.462Z,6.65
2017-09-09T03:52:39.870Z,7.30
2017-09-09T03:55:17.021Z,8.27
2017-09-09T03:57:46.018Z,7.28
2017-09-09T04:00:14.403Z,6.70
2017-09-09T04:02:43.602Z,7.07
2017-09-09T04:05:12.854Z,7.28
2017-09-09T04:07:41.906Z,7.55
2017-09-09T04:10:11.028Z,8.10
2017-09-09T04:12:50.981Z,7.20
2017-09-09T04:15:23.192Z,8.20
2017-09-09T04:17:52.232Z,7.90
2017-09-09T04:20:23.015Z,7.85
2017-09-09T04:22:52.765Z,7.55
2017-09-09T04:25:22.257Z,7.32
2017-09-09T04:27:51.195Z,8.05
2017-09-09T04:30:20.120Z,7.82
2017-09-09T04:32:49.024Z,7.68
2017-09-09T04:35:17.873Z,8.80
2017-09-09T04:37:47.238Z,7.05
2017-09-09T04:40:16.336Z,6.25
2017-09-09T04:42:45.329Z,7.72
2017-09-09T04:45:14.427Z,8.13
2017-09-09T04:47:44.455Z,9.65
2017-09-09T04:50:14.472Z,8.35
2017-09-09T04:52:43.404Z,8.02
2017-09-09T04:55:12.280Z,8.02
2017-09-09T04:57:41.162Z,7.82
2017-09-09T05:00:09.998Z,7.95
2017-09-09T05:02:38.809Z,6.95
2017-09-09T05:05:07.071Z,7.07
2017-09-09T05:07:35.934Z,8.45
2017-09-09T05:10:04.873Z,7.62
2017-09-09T05:12:33.731Z,8.05
2017-09-09T05:15:02.615Z,10.30
2017-09-09T05:17:31.923Z,8.07
2017-09-09T05:20:00.780Z,7.68
2017-09-09T05:22:30.402Z,9.60
2017-09-09T05:24:59.327Z,8.13
2017-09-09T05:27:28.222Z,7.87
2017-09-09T05:29:57.373Z,7.35
2017-09-09T05:32:26.434Z,6.25
2017-09-09T05:35:02.117Z,8.20
2017-09-09T05:37:30.869Z,7.35
2017-09-09T05:40:00.546Z,7.93
2017-09-09T05:42:29.442Z,8.43
2017-09-09T05:44:58.264Z,7.78
2017-09-09T05:47:27.015Z,6.90
2017-09-09T05:49:56.335Z,7.80
2017-09-09T05:52:24.200Z,7.63
2017-09-09T05:54:52.717Z,6.80
2017-09-09T05:57:21.315Z,6.13
2017-09-09T05:59:49.894Z,5.20
2017-09-09T06:02:18.462Z,6.40
2017-09-09T06:04:46.937Z,6.30
2017-09-09T06:07:15.545Z,6.20
2017-09-09T06:09:44.015Z,6.90
2017-09-09T06:12:12.519Z,6.90
2017-09-09T06:14:41.095Z,5.50
2017-09-09T06:17:09.563Z,5.60
2017-09-09T06:19:38.077Z,5.50
2017-09-09T06:22:06.562Z,7.13
2017-09-09T06:24:35.295Z,9.10
2017-09-09T06:27:03.822Z,6.90
2017-09-09T06:29:36.882Z,5.93
2017-09-09T06:32:05.385Z,5.97
2017-09-09T06:34:33.866Z,5.60
2017-09-09T06:37:02.444Z,6.43
2017-09-09T06:39:31.231Z,5.23
2017-09-09T06:42:00.606Z,5.80
2017-09-09T06:44:30.097Z,5.80
2017-09-09T06:47:04.225Z,7.47
2017-09-09T06:49:33.006Z,7.03
2017-09-09T06:52:01.615Z,8.20
2017-09-09T06:54:30.638Z,7.43
2017-09-09T06:56:59.410Z,7.70
2017-09-09T06:59:27.915Z,8.03
2017-09-09T07:01:56.494Z,6.93
2017-09-09T07:04:25.121Z,7.17
2017-09-09T07:06:53.655Z,6.00
2017-09-09T07:09:22.206Z,5.67
2017-09-09T07:11:50.779Z,5.80
2017-09-09T07:14:19.328Z,6.90
2017-09-09T07:16:47.833Z,6.47
2017-09-09T07:19:17.164Z,5.80
2017-09-09T07:21:45.615Z,7.77
2017-09-09T07:24:14.134Z,7.50
2017-09-09T07:26:42.608Z,7.60
2017-09-09T07:29:11.085Z,10.07
2017-09-09T07:31:39.608Z,9.07
2017-09-09T07:34:08.098Z,9.83
2017-09-09T07:36:36.888Z,9.13
2017-09-09T07:39:04.745Z,8.17
2017-09-09T07:41:33.293Z,7.17
2017-09-09T07:44:01.859Z,8.30
2017-09-09T07:46:30.381Z,9.40
2017-09-09T07:48:58.882Z,8.80
2017-09-09T07:51:27.347Z,8.57
2017-09-09T07:53:55.873Z,8.17
2017-09-09T07:56:24.344Z,8.03
2017-09-09T07:58:52.793Z,8.13
2017-09-09T08:01:21.258Z,8.20
2017-09-09T08:03:49.674Z,9.37
2017-09-09T08:06:18.211Z,8.47
2017-09-09T08:08:46.718Z,8.50
2017-09-09T08:11:15.171Z,8.33
2017-09-09T08:13:43.621Z,9.27
2017-09-09T08:16:12.037Z,7.63
2017-09-09T08:18:40.484Z,9.20
2017-09-09T08:21:09.738Z,7.70
2017-09-09T08:23:38.198Z,8.73
2017-09-09T08:26:06.712Z,7.90
2017-09-09T08:28:35.193Z,7.43
2017-09-09T08:31:03.646Z,6.67
2017-09-09T08:33:32.091Z,7.43
2017-09-09T08:36:01.595Z,7.60
2017-09-09T08:38:30.046Z,6.23
2017-09-09T08:40:58.512Z,6.87
2017-09-09T08:43:26.958Z,5.53
2017-09-09T08:45:54.877Z,7.67
2017-09-09T08:48:23.346Z,6.20
2017-09-09T08:50:51.818Z,6.10
2017-09-09T08:53:20.298Z,5.77
2017-09-09T08:55:48.742Z,6.47
2017-09-09T08:58:17.154Z,5.20
2017-09-09T09:00:45.593Z,5.80
2017-09-09T09:03:14.020Z,5.00
2017-09-09T09:05:42.517Z,5.97
2017-09-09T09:08:10.976Z,7.17
2017-09-09T09:10:39.401Z,7.57
2017-09-09T09:13:07.842Z,5.97
2017-09-09T09:15:36.149Z,7.03
2017-09-09T09:18:04.613Z,7.07
2017-09-09T09:20:33.065Z,6.97
2017-09-09T09:23:02.318Z,7.07
2017-09-09T09:25:30.771Z,7.27
2017-09-09T09:27:59.432Z,7.83
2017-09-09T09:30:27.893Z,6.73
2017-09-09T09:32:56.322Z,7.97
2017-09-09T09:35:24.773Z,7.10
2017-09-09T09:37:53.186Z,6.57
2017-09-09T09:40:21.610Z,6.27
2017-09-09T09:42:50.113Z,5.57
2017-09-09T09:45:18.558Z,6.60
2017-09-09T09:47:46.986Z,5.83
2017-09-09T09:50:15.422Z,5.47
2017-09-09T09:52:44.615Z,5.70
2017-09-09T09:55:13.037Z,6.10
2017-09-09T09:57:41.487Z,5.13
2017-09-09T10:00:09.906Z,6.00
2017-09-09T10:02:38.333Z,5.00
2017-09-09T10:05:06.813Z,5.47
2017-09-09T10:07:35.278Z,5.37
2017-09-09T10:10:03.703Z,5.90
2017-09-09T10:12:32.162Z,5.60
2017-09-09T10:15:00.599Z,5.43
2017-09-09T10:17:29.058Z,5.40
2017-09-09T10:19:57.511Z,4.50
2017-09-09T10:22:25.758Z,4.50
2017-09-09T10:24:58.843Z,4.73
2017-09-09T10:27:27.092Z,5.30
2017-09-09T10:29:55.423Z,4.13
2017-09-09T10:32:23.874Z,4.47
2017-09-09T10:34:52.347Z,3.70
2017-09-09T10:37:20.784Z,3.90
2017-09-09T10:39:49.266Z,3.70
2017-09-09T10:42:17.713Z,3.80
2017-09-09T10:44:47.928Z,3.70
2017-09-09T10:47:16.439Z,4.00
2017-09-09T10:49:44.890Z,3.70
2017-09-09T10:52:13.350Z,3.90
2017-09-09T10:54:41.803Z,4.27
2017-09-09T10:57:10.249Z,3.80
2017-09-09T10:59:38.666Z,4.30
2017-09-09T11:02:07.302Z,3.37
2017-09-09T11:04:35.744Z,4.10
2017-09-09T11:07:04.188Z,4.20
2017-09-09T11:09:32.644Z,3.97
2017-09-09T11:12:01.045Z,4.00
2017-09-09T11:14:29.452Z,3.70
2017-09-09T11:16:57.909Z,3.90
2017-09-09T11:19:26.349Z,3.50
2017-09-09T11:21:55.546Z,3.50
2017-09-09T11:24:24.773Z,4.00
2017-09-09T11:26:53.189Z,3.73
2017-09-09T11:29:21.619Z,4.33
2017-09-09T11:31:50.114Z,3.20
2017-09-09T11:34:19.309Z,3.53
2017-09-09T11:36:48.534Z,4.03
2017-09-09T11:39:16.978Z,3.50
2017-09-09T11:41:45.402Z,3.20
2017-09-09T11:44:13.826Z,3.33
2017-09-09T11:46:42.278Z,4.43
2017-09-09T11:49:10.709Z,3.47
2017-09-09T11:51:39.921Z,3.70
2017-09-09T11:54:08.368Z,3.13
2017-09-09T11:56:36.821Z,4.03
2017-09-09T11:59:05.254Z,3.60
2017-09-09T12:01:33.685Z,4.57
2017-09-09T12:04:02.113Z,3.80
2017-09-09T12:06:30.533Z,4.00
2017-09-09T12:08:58.979Z,4.17
2017-09-09T12:11:27.410Z,4.03
2017-09-09T12:13:55.833Z,4.30
2017-09-09T12:16:24.285Z,4.33
2017-09-09T12:18:52.698Z,4.80
2017-09-09T12:21:21.112Z,4.00
2017-09-09T12:23:49.565Z,4.20
2017-09-09T12:26:17.977Z,4.63
2017-09-09T12:28:46.425Z,3.90
2017-09-09T12:31:15.655Z,3.97
2017-09-09T12:33:44.083Z,4.10
2017-09-09T12:36:12.554Z,4.30
2017-09-09T12:38:41.096Z,4.83
2017-09-09T12:41:09.563Z,5.63
2017-09-09T12:43:38.090Z,4.73
2017-09-09T12:46:06.527Z,4.73
2017-09-09T12:48:34.946Z,4.43
2017-09-09T12:51:03.382Z,4.50
2017-09-09T12:53:32.573Z,4.23
2017-09-09T12:56:01.043Z,4.13
2017-09-09T12:58:30.255Z,4.10
2017-09-09T13:00:58.689Z,4.07
2017-09-09T13:03:27.115Z,4.00
2017-09-09T13:05:55.545Z,4.20
2017-09-09T13:08:23.985Z,4.27
2017-09-09T13:10:52.414Z,3.47
2017-09-09T13:13:20.861Z,3.87
2017-09-09T13:15:49.308Z,3.93
2017-09-09T13:18:18.508Z,3.40
2017-09-09T13:20:46.951Z,3.90
2017-09-09T13:23:15.421Z,3.50
2017-09-09T13:25:43.864Z,3.37
2017-09-09T13:28:12.291Z,3.33
2017-09-09T13:30:40.815Z,3.10
2017-09-09T13:33:09.246Z,3.00
2017-09-09T13:35:37.694Z,3.17
2017-09-09T13:38:06.126Z,3.47
2017-09-09T13:40:34.557Z,3.93
2017-09-09T13:43:02.971Z,3.63
2017-09-09T13:45:31.435Z,4.10
2017-09-09T13:47:59.872Z,4.30
2017-09-09T13:50:28.313Z,4.10
2017-09-09T13:52:56.770Z,3.97
2017-09-09T13:55:25.190Z,3.70
2017-09-09T13:57:53.633Z,3.20
2017-09-09T14:00:21.745Z,4.30
2017-09-09T14:02:50.038Z,4.10
2017-09-09T14:05:18.478Z,4.67
2017-09-09T14:07:46.934Z,4.00
2017-09-09T14:10:15.426Z,4.30
2017-09-09T14:12:43.894Z,4.50
2017-09-09T14:15:12.324Z,5.10
2017-09-09T14:17:40.766Z,3.70
2017-09-09T14:20:09.181Z,4.10
2017-09-09T14:22:37.655Z,3.90
2017-09-09T14:25:06.090Z,4.13
2017-09-09T14:27:34.334Z,4.03
2017-09-09T14:30:02.771Z,3.53
2017-09-09T14:32:31.245Z,4.40
2017-09-09T14:34:59.669Z,4.50
2017-09-09T14:37:28.094Z,5.23
2017-09-09T14:39:56.570Z,4.40
2017-09-09T14:42:24.991Z,3.67
2017-09-09T14:44:53.414Z,4.17
2017-09-09T14:47:21.927Z,4.00
2017-09-09T14:49:50.534Z,3.60
2017-09-09T14:52:18.998Z,3.83
2017-09-09T14:54:47.514Z,3.83
2017-09-09T14:57:15.973Z,5.10
2017-09-09T14:59:44.407Z,4.77
2017-09-09T15:02:12.860Z,3.43
2017-09-09T15:04:41.341Z,4.27
2017-09-09T15:07:09.777Z,3.50
2017-09-09T15:09:38.238Z,3.70
2017-09-09T15:12:06.685Z,4.20
2017-09-09T15:14:35.335Z,3.33
2017-09-09T15:17:04.586Z,3.27
2017-09-09T15:19:32.998Z,4.50
2017-09-09T15:22:01.407Z,4.70
2017-09-09T15:24:29.922Z,3.63
2017-09-09T15:26:58.344Z,3.93
2017-09-09T15:29:26.786Z,4.40
2017-09-09T15:31:55.241Z,3.93
2017-09-09T15:34:23.667Z,4.33
2017-09-09T15:36:52.111Z,4.80
2017-09-09T15:39:20.586Z,5.20
2017-09-09T15:41:48.846Z,4.97
2017-09-09T15:44:17.270Z,4.07
2017-09-09T15:46:45.557Z,3.70
2017-09-09T15:49:13.997Z,4.03
2017-09-09T15:51:42.482Z,4.07
2017-09-09T15:54:11.706Z,3.73
2017-09-09T15:56:40.141Z,4.20
2017-09-09T15:59:09.354Z,4.47
2017-09-09T16:01:37.813Z,4.40
2017-09-09T16:04:06.253Z,4.33
2017-09-09T16:06:34.682Z,4.23
2017-09-09T16:09:03.159Z,4.80
2017-09-09T16:11:31.426Z,3.67
2017-09-09T16:13:59.670Z,4.33
2017-09-09T16:16:28.282Z,5.23
2017-09-09T16:18:56.721Z,4.57
2017-09-09T16:21:25.161Z,4.60
2017-09-09T16:23:53.629Z,4.40
2017-09-09T16:26:22.058Z,4.83
2017-09-09T16:28:50.474Z,3.83
2017-09-09T16:31:18.945Z,4.70
2017-09-09T16:33:47.398Z,4.40
2017-09-09T16:36:15.873Z,5.67
2017-09-09T16:38:44.297Z,4.50
2017-09-09T16:41:12.590Z,5.27
2017-09-09T16:43:41.014Z,4.40
2017-09-09T16:46:09.438Z,4.20
2017-09-09T16:48:37.874Z,4.40
2017-09-09T16:51:07.075Z,5.00
2017-09-09T16:53:36.265Z,5.10
2017-09-09T16:56:04.702Z,5.43
2017-09-09T16:58:33.130Z,4.37
2017-09-09T17:01:01.543Z,4.03
2017-09-09T17:03:30.010Z,5.40
2017-09-09T17:05:58.414Z,4.80
2017-09-09T17:08:26.833Z,4.70
2017-09-09T17:10:55.264Z,5.30
2017-09-09T17:13:23.667Z,5.03
2017-09-09T17:15:52.069Z,5.23
2017-09-09T17:18:20.534Z,4.83
2017-09-09T17:20:48.958Z,6.20
2017-09-09T17:23:17.370Z,5.87
2017-09-09T17:25:45.824Z,6.60
2017-09-09T17:28:14.254Z,10.30
2017-09-09T17:30:42.658Z,6.83
2017-09-09T17:33:11.093Z,5.50
2017-09-09T17:35:39.508Z,4.97
2017-09-09T17:38:07.933Z,4.87
2017-09-09T17:40:36.386Z,5.30
2017-09-09T17:43:04.820Z,10.80
2017-09-09T17:45:32.888Z,5.90
2017-09-09T17:48:01.346Z,7.07
2017-09-09T17:50:29.762Z,7.53
2017-09-09T17:52:58.218Z,11.33
2017-09-09T17:55:26.682Z,15.37
2017-09-09T17:57:55.112Z,7.33
2017-09-09T18:00:23.583Z,5.87
2017-09-09T18:02:52.088Z,5.20
2017-09-09T18:05:20.540Z,7.03
2017-09-09T18:07:48.994Z,14.17
2017-09-09T18:10:17.514Z,13.37
2017-09-09T18:12:45.958Z,6.20
2017-09-09T18:15:14.379Z,7.47
2017-09-09T18:17:42.670Z,5.67
2017-09-09T18:20:11.128Z,6.50
2017-09-09T18:22:39.573Z,5.77
2017-09-09T18:25:08.058Z,6.53
2017-09-09T18:27:36.542Z,5.90
2017-09-09T18:30:05.008Z,4.67
2017-09-09T18:32:33.490Z,10.60
2017-09-09T18:35:02.711Z,9.40
2017-09-09T18:37:31.169Z,14.23
2017-09-09T18:39:59.630Z,16.50
2017-09-09T18:42:28.095Z,12.97
2017-09-09T18:44:56.585Z,20.67
2017-09-09T18:47:25.020Z,6.33
2017-09-09T18:49:53.452Z,15.97
2017-09-09T18:52:21.926Z,6.83
2017-09-09T18:54:50.395Z,5.37
2017-09-09T18:57:18.871Z,16.47
2017-09-09T18:59:47.159Z,12.63
2017-09-09T19:02:15.610Z,6.30
2017-09-09T19:04:44.082Z,5.27
2017-09-09T19:07:12.565Z,5.20
2017-09-09T19:09:41.003Z,5.97
2017-09-09T19:12:09.478Z,6.33
2017-09-09T19:14:37.964Z,6.80
2017-09-09T19:17:06.405Z,6.30
2017-09-09T19:19:35.085Z,5.73
2017-09-09T19:22:03.545Z,5.10
2017-09-09T19:24:31.998Z,5.90
2017-09-09T19:27:00.541Z,5.67
2017-09-09T19:29:28.802Z,5.37
2017-09-09T19:31:57.230Z,5.30
2017-09-09T19:34:25.716Z,5.87
2017-09-09T19:36:54.182Z,6.30
2017-09-09T19:39:22.667Z,6.13
2017-09-09T19:41:51.124Z,5.53
2017-09-09T19:44:19.561Z,6.03
2017-09-09T19:46:48.043Z,6.80
2017-09-09T19:49:16.473Z,5.83
2017-09-09T19:51:44.931Z,5.70
2017-09-09T19:54:13.433Z,7.23
2017-09-09T19:56:41.878Z,5.57
2017-09-09T19:59:10.334Z,7.10
2017-09-09T20:01:38.831Z,5.83
2017-09-09T20:04:07.281Z,7.77
2017-09-09T20:06:35.553Z,6.23
2017-09-09T20:09:03.131Z,7.97
2017-09-09T20:11:31.583Z,7.77
2017-09-09T20:14:00.042Z,7.03
2017-09-09T20:16:28.527Z,5.67
2017-09-09T20:18:57.054Z,6.20
2017-09-09T20:21:25.506Z,6.20
2017-09-09T20:23:53.780Z,6.80
2017-09-09T20:26:22.098Z,6.30
2017-09-09T20:28:50.554Z,6.60
2017-09-09T20:31:19.022Z,6.20
2017-09-09T20:33:47.509Z,7.40
2017-09-09T20:36:15.988Z,6.60
2017-09-09T20:38:44.441Z,5.70
2017-09-09T20:41:12.970Z,5.83
2017-09-09T20:43:41.435Z,6.57
2017-09-09T20:46:09.920Z,6.53
2017-09-09T20:48:38.410Z,5.80
2017-09-09T20:51:06.870Z,6.17
2017-09-09T20:53:35.145Z,5.87
2017-09-09T20:56:03.691Z,5.97
2017-09-09T20:58:32.153Z,6.00
2017-09-09T21:01:00.611Z,5.23
2017-09-09T21:03:29.147Z,7.93
2017-09-09T21:05:57.880Z,6.80
2017-09-09T21:08:26.352Z,6.17
2017-09-09T21:10:54.807Z,6.37
2017-09-09T21:13:23.352Z,6.83
2017-09-09T21:15:51.624Z,6.37
2017-09-09T21:18:20.130Z,5.27
2017-09-09T21:20:48.612Z,5.70
2017-09-09T21:23:17.072Z,6.40
2017-09-09T21:25:45.516Z,5.53
2017-09-09T21:28:14.008Z,5.70
2017-09-09T21:30:42.515Z,6.57
2017-09-09T21:33:10.963Z,5.70
2017-09-09T21:35:39.225Z,6.10
2017-09-09T21:38:07.551Z,5.80
2017-09-09T21:40:36.020Z,6.47
2017-09-09T21:43:04.525Z,6.53
2017-09-09T21:45:33.035Z,6.87
2017-09-09T21:48:01.499Z,6.43
2017-09-09T21:50:29.996Z,6.03
2017-09-09T21:52:58.170Z,7.90
2017-09-09T21:55:26.661Z,6.60
2017-09-09T21:57:55.951Z,7.23
2017-09-09T22:00:24.487Z,7.87
2017-09-09T22:02:52.958Z,5.83
2017-09-09T22:05:22.198Z,8.10
2017-09-09T22:07:50.767Z,6.50
2017-09-09T22:10:19.224Z,7.07
2017-09-09T22:12:47.695Z,6.20
2017-09-09T22:15:16.224Z,7.40
2017-09-09T22:17:44.681Z,6.23
2017-09-09T22:20:13.139Z,6.30
2017-09-09T22:22:42.374Z,6.43
2017-09-09T22:25:10.871Z,7.30
2017-09-09T22:27:39.362Z,6.87
2017-09-09T22:30:07.887Z,6.50
2017-09-09T22:32:36.346Z,6.73
2017-09-09T22:35:04.830Z,7.53
2017-09-09T22:37:33.295Z,6.47
2017-09-09T22:40:01.752Z,6.60
2017-09-09T22:42:30.209Z,6.57
2017-09-09T22:44:58.733Z,7.87
2017-09-09T22:47:27.189Z,7.40
2017-09-09T22:49:55.681Z,7.87
2017-09-09T22:52:24.141Z,6.80
2017-09-09T22:54:52.596Z,7.03
2017-09-09T22:57:21.134Z,6.43
2017-09-09T22:59:49.609Z,7.13
2017-09-09T23:02:18.096Z,6.40
2017-09-09T23:04:46.594Z,7.10
2017-09-09T23:07:15.043Z,6.70
2017-09-09T23:09:43.490Z,6.90
2017-09-09T23:12:12.747Z,6.00
2017-09-09T23:14:41.210Z,6.90
2017-09-09T23:17:09.646Z,7.20
2017-09-09T23:19:38.136Z,6.40
2017-09-09T23:22:06.642Z,6.60
2017-09-09T23:24:35.122Z,8.10
2017-09-09T23:27:03.622Z,7.63
2017-09-09T23:29:32.086Z,7.20
2017-09-09T23:32:00.528Z,6.40
2017-09-09T23:34:28.994Z,6.30
2017-09-09T23:36:57.306Z,6.77
2017-09-09T23:39:27.335Z,6.53
2017-09-09T23:41:55.891Z,6.63
2017-09-09T23:44:24.366Z,6.37
2017-09-09T23:46:52.830Z,7.03
2017-09-09T23:49:21.304Z,6.70
2017-09-09T23:51:49.843Z,6.47
2017-09-09T23:54:18.290Z,6.70
2017-09-09T23:56:46.771Z,6.03
2017-09-09T23:59:15.231Z,6.50
